Time;durP1;ratioP1;P1;durP2;ratioP2;P2;SDS_P1;SDS_P2;PMS_P1;PMS_P2;Temp;Humidity;BMP_temperature;BMP_pressure;BME280_temperature;BME280_humidity;BME280_pressure;Samples;Min_cycle;Max_cycle;Signal;HPM_P1;HPM_P2
2021/08/20 00:00:00;;;;;;;7.93;5.00;;;15.20;99.90;;;16.42;99.60;100458.84;6161576;23;20465;-85
2021/08/20 00:02:29;;;;;;;8.63;5.07;;;15.20;99.90;;;16.40;99.76;100459.25;6160661;23;20013;-83
2021/08/20 00:04:55;;;;;;;10.57;6.20;;;15.10;99.90;;;16.33;100.00;100454.44;6161300;23;20009;-87
2021/08/20 00:07:22;;;;;;;9.55;6.00;;;15.10;99.90;;;16.35;100.00;100454.00;6160365;23;20009;-85
2021/08/20 00:10:00;;;;;;;8.05;5.45;;;15.10;99.90;;;16.37;100.00;100457.25;6187461;23;20423;-85
2021/08/20 00:12:27;;;;;;;11.43;5.80;;;15.10;99.90;;;16.39;100.00;100456.81;6160970;23;20009;-84
2021/08/20 00:14:57;;;;;;;15.57;5.75;;;15.10;99.90;;;16.37;100.00;100457.25;6160693;23;20164;-87
2021/08/20 00:17:25;;;;;;;7.72;4.80;;;15.20;99.90;;;16.32;100.00;100461.25;6186838;23;20379;-86
2021/08/20 00:19:52;;;;;;;9.55;5.40;;;15.00;99.90;;;16.27;100.00;100464.50;6159814;23;20005;-85
2021/08/20 00:22:18;;;;;;;11.70;5.93;;;15.10;99.90;;;16.23;100.00;100455.22;6159941;23;20016;-83
2021/08/20 00:24:44;;;;;;;7.55;5.32;;;15.00;99.90;;;16.25;100.00;100460.44;6186823;23;20015;-84
2021/08/20 00:27:11;;;;;;;8.75;5.85;;;15.00;99.90;;;16.18;100.00;100444.31;6160088;23;20009;-85
2021/08/20 00:29:37;;;;;;;9.10;6.32;;;14.90;99.90;;;16.16;100.00;100454.41;6159861;23;20012;-87
2021/08/20 00:32:04;;;;;;;9.55;6.30;;;14.90;99.90;;;16.20;100.00;100458.84;6186969;23;20005;-86
2021/08/20 00:34:30;;;;;;;8.23;5.57;;;14.90;99.90;;;16.22;100.00;100455.59;6185911;23;20130;-87
2021/08/20 00:36:56;;;;;;;9.13;6.57;;;14.90;99.90;;;16.25;100.00;100454.81;6187591;23;20020;-87
2021/08/20 00:39:23;;;;;;;8.27;6.45;;;15.00;99.90;;;16.27;100.00;100456.03;6160788;23;20029;-86
2021/08/20 00:41:50;;;;;;;10.90;6.47;;;15.00;99.90;;;16.24;100.00;100451.19;6161873;23;20009;-85
2021/08/20 00:44:18;;;;;;;13.13;7.38;;;15.00;99.90;;;16.23;100.00;100449.59;6187574;23;20005;-86
2021/08/20 00:46:45;;;;;;;10.35;7.63;;;15.00;99.90;;;16.30;100.00;100452.41;6185396;23;20031;-88
2021/08/20 00:49:15;;;;;;;14.88;8.13;;;15.10;99.90;;;16.33;100.00;100443.16;6186554;23;20001;-83
2021/08/20 00:51:42;;;;;;;14.15;7.75;;;15.00;99.90;;;16.34;100.00;100441.13;6161551;23;20012;-84
2021/08/20 00:54:13;;;;;;;11.48;7.88;;;15.10;99.90;;;16.45;100.00;100441.13;6161380;23;20009;-87
2021/08/20 00:56:45;;;;;;;12.43;8.18;;;15.10;99.90;;;16.40;100.00;100445.16;6161353;23;20025;-87
2021/08/20 00:59:15;;;;;;;18.15;7.22;;;15.20;99.90;;;16.47;100.00;100447.19;6175284;23;20001;-80
2021/08/20 01:01:42;;;;;;;13.75;8.52;;;15.20;99.90;;;16.42;100.00;100451.19;6206247;23;20016;-87
2021/08/20 01:04:09;;;;;;;12.55;8.43;;;15.20;99.90;;;16.40;100.00;100447.97;6186422;23;20005;-86
2021/08/20 01:06:37;;;;;;;14.02;9.18;;;15.20;99.90;;;16.30;100.00;100443.97;6162141;23;20343;-84
2021/08/20 01:09:06;;;;;;;11.88;8.85;;;15.20;99.90;;;16.30;100.00;100443.97;6190276;23;20088;-85
2021/08/20 01:11:33;;;;;;;10.18;7.93;;;15.10;99.90;;;16.30;100.00;100446.78;6163047;23;20005;-89
2021/08/20 01:13:59;;;;;;;13.43;8.63;;;15.10;99.90;;;16.41;100.00;100454.44;6163262;23;20347;-90
2021/08/20 01:16:25;;;;;;;12.88;8.50;;;15.20;99.90;;;16.43;100.00;100449.19;6189736;23;20008;-90
2021/08/20 01:18:51;;;;;;;11.35;7.60;;;15.20;99.90;;;16.47;100.00;100447.97;6163908;23;20028;-89
2021/08/20 01:21:23;;;;;;;13.07;8.48;;;15.30;99.90;;;16.42;100.00;100434.28;6163369;23;20009;-87
2021/08/20 01:24:00;;;;;;;13.40;8.23;;;15.30;99.90;;;16.49;100.00;100439.94;6162638;23;20007;-89
2021/08/20 01:26:33;;;;;;;13.98;8.43;;;15.30;99.90;;;16.47;100.00;100441.53;6162640;23;20013;-89
2021/08/20 01:29:01;;;;;;;14.93;8.65;;;15.30;99.90;;;16.52;100.00;100449.59;6162424;23;20013;-86
2021/08/20 01:31:27;;;;;;;14.93;8.90;;;15.30;99.90;;;16.54;100.00;100435.88;6162317;23;20001;-89
2021/08/20 01:33:54;;;;;;;12.52;8.13;;;15.30;99.90;;;16.62;100.00;100432.69;6160869;23;20035;-88
2021/08/20 01:36:22;;;;;;;13.55;8.55;;;15.40;99.90;;;16.53;100.00;100434.28;6161012;23;20466;-85
2021/08/20 01:38:55;;;;;;;10.98;7.65;;;15.40;99.90;;;16.50;100.00;100437.91;6187682;23;20008;-88
2021/08/20 01:41:25;;;;;;;10.63;7.20;;;15.30;99.90;;;16.53;100.00;100443.56;6161422;23;20073;-87
2021/08/20 01:43:52;;;;;;;14.55;8.70;;;15.30;99.90;;;16.49;100.00;100436.28;6187154;23;20064;-88
2021/08/20 01:46:19;;;;;;;11.15;7.88;;;15.30;99.90;;;16.56;100.00;100439.16;6187531;23;20387;-88
2021/08/20 01:48:57;;;;;;;10.23;7.22;;;15.30;99.90;;;16.46;100.00;100435.09;6187006;23;20012;-87
2021/08/20 01:51:28;;;;;;;10.77;8.05;;;15.30;99.90;;;16.37;100.00;100431.06;6161594;23;20016;-85
2021/08/20 01:53:57;;;;;;;12.32;6.82;;;15.30;99.90;;;16.45;100.00;100433.47;6160400;23;20040;-87
2021/08/20 01:56:34;;;;;;;11.00;8.07;;;15.30;99.90;;;16.39;100.00;100428.63;6185118;23;20014;-86
2021/08/20 01:59:01;;;;;;;12.05;7.25;;;15.20;99.90;;;16.34;100.00;100438.31;6160101;23;20016;-85
2021/08/20 02:01:31;;;;;;;12.10;7.55;;;15.20;99.90;;;16.41;100.00;100440.34;6160041;23;20036;-87
2021/08/20 02:03:57;;;;;;;11.45;7.40;;;15.20;99.90;;;16.45;100.00;100449.59;6187209;23;20005;-85
2021/08/20 02:06:24;;;;;;;11.60;7.05;;;15.20;99.90;;;16.44;100.00;100436.72;6160337;23;20079;-86
2021/08/20 02:08:49;;;;;;;10.55;6.72;;;15.20;99.90;;;16.45;100.00;100443.94;6160618;23;20079;-87
2021/08/20 02:11:15;;;;;;;12.88;7.43;;;15.10;99.90;;;16.42;100.00;100441.94;6186214;23;20017;-87
2021/08/20 02:13:41;;;;;;;11.95;7.68;;;15.20;99.90;;;16.43;100.00;100449.19;6160138;23;20311;-85
2021/08/20 02:16:07;;;;;;;9.70;7.32;;;15.20;99.90;;;16.41;100.00;100443.16;6187672;23;20037;-85
2021/08/20 02:18:34;;;;;;;12.27;7.15;;;15.20;99.90;;;16.48;100.00;100445.94;6187496;23;20316;-85
2021/08/20 02:21:01;;;;;;;13.32;7.90;;;15.20;99.90;;;16.31;100.00;100448.38;6161868;23;20005;-86
2021/08/20 02:23:27;;;;;;;13.40;7.90;;;15.20;99.90;;;16.34;100.00;100441.13;6187488;23;20005;-86
2021/08/20 02:25:53;;;;;;;11.18;7.43;;;15.10;99.90;;;16.32;100.00;100440.72;6187851;23;20427;-85
2021/08/20 02:28:19;;;;;;;10.27;7.20;;;15.10;99.90;;;16.39;100.00;100445.56;6160682;23;20027;-88
2021/08/20 02:30:45;;;;;;;9.38;7.22;;;15.10;99.90;;;16.41;100.00;100449.56;6161762;23;20118;-86
2021/08/20 02:33:11;;;;;;;10.05;7.70;;;15.10;99.90;;;16.42;100.00;100450.38;6187486;23;20088;-87
2021/08/20 02:35:38;;;;;;;10.32;7.63;;;15.20;99.90;;;16.48;100.00;100448.78;6161149;23;20467;-87
2021/08/20 02:38:04;;;;;;;11.30;7.47;;;15.20;99.90;;;16.54;100.00;100449.97;6161322;23;20442;-85
2021/08/20 02:40:30;;;;;;;8.68;7.22;;;15.20;99.90;;;16.56;100.00;100454.06;6187688;23;20001;-83
2021/08/20 02:42:56;;;;;;;10.15;7.07;;;15.30;99.90;;;16.57;100.00;100452.81;6160964;23;20009;-82
2021/08/20 02:45:22;;;;;;;11.52;8.18;;;15.30;99.90;;;16.60;100.00;100454.06;6161350;23;20009;-83
2021/08/20 02:47:48;;;;;;;9.13;7.55;;;15.40;99.90;;;16.68;100.00;100458.47;6161370;23;20009;-85
2021/08/20 02:50:15;;;;;;;12.48;9.55;;;15.30;99.90;;;16.63;100.00;100459.66;6161276;23;20009;-84
2021/08/20 02:52:41;;;;;;;15.02;9.57;;;15.40;99.90;;;16.66;100.00;100458.84;6187543;23;20454;-86
2021/08/20 02:55:07;;;;;;;13.73;9.23;;;15.40;99.90;;;16.74;100.00;100460.47;6160103;23;20009;-85
2021/08/20 02:57:33;;;;;;;13.10;9.23;;;15.40;99.90;;;16.78;100.00;100463.31;6160136;23;20009;-85
2021/08/20 02:59:59;;;;;;;15.13;9.98;;;15.40;99.90;;;16.77;100.00;100467.31;6187168;23;20019;-86
2021/08/20 03:02:25;;;;;;;17.02;11.27;;;15.40;99.90;;;16.78;100.00;100468.94;6160759;23;20821;-84
2021/08/20 03:04:51;;;;;;;15.20;11.27;;;15.40;99.90;;;16.77;100.00;100465.31;6160423;23;20060;-85
2021/08/20 03:07:18;;;;;;;13.90;10.30;;;15.50;99.90;;;16.77;100.00;100462.50;6160355;23;20005;-87
2021/08/20 03:09:44;;;;;;;19.08;10.48;;;15.40;99.90;;;16.80;100.00;100469.34;6187381;23;20005;-86
2021/08/20 03:12:10;;;;;;;14.98;11.50;;;15.40;99.90;;;16.74;100.00;100479.41;6161406;23;20013;-87
2021/08/20 03:14:36;;;;;;;18.48;12.32;;;15.40;99.90;;;16.64;100.00;100466.13;6160646;23;20009;-88
2021/08/20 03:17:02;;;;;;;17.20;11.73;;;15.40;99.90;;;16.65;100.00;100470.56;6187831;23;20005;-88
2021/08/20 03:19:29;;;;;;;16.65;10.80;;;15.30;99.90;;;16.66;100.00;100469.34;6172934;23;20069;-83
2021/08/20 03:21:56;;;;;;;15.13;10.50;;;15.30;99.90;;;16.57;100.00;100457.66;6184265;23;20009;-85
2021/08/20 03:24:22;;;;;;;15.77;10.02;;;15.20;99.90;;;16.53;100.00;100460.47;6161554;23;20354;-87
2021/08/20 03:26:50;;;;;;;14.50;11.45;;;15.20;99.90;;;16.48;100.00;100465.69;6186086;23;20001;-88
2021/08/20 03:29:16;;;;;;;14.60;10.40;;;15.10;99.90;;;16.37;100.00;100474.16;6160070;23;20088;-87
2021/08/20 03:31:42;;;;;;;15.65;10.82;;;15.10;99.90;;;16.32;100.00;100478.16;6159953;23;20428;-86
2021/08/20 03:34:08;;;;;;;16.20;11.45;;;15.00;99.90;;;16.27;100.00;100483.41;6160362;23;20009;-85
2021/08/20 03:36:34;;;;;;;19.38;11.43;;;15.00;99.90;;;16.24;100.00;100476.56;6160137;23;20351;-87
2021/08/20 03:39:00;;;;;;;13.43;9.80;;;14.90;99.90;;;16.23;100.00;100476.94;6186796;23;20012;-85
2021/08/20 03:41:26;;;;;;;15.00;11.05;;;14.90;99.90;;;16.21;100.00;100479.38;6160717;23;20001;-87
2021/08/20 03:43:52;;;;;;;17.35;11.70;;;14.90;99.90;;;16.16;100.00;100480.56;6159745;23;20097;-86
2021/08/20 03:46:18;;;;;;;14.05;11.00;;;14.80;99.90;;;16.15;100.00;100478.16;6185948;23;20009;-86
2021/08/20 03:48:44;;;;;;;15.88;12.00;;;14.90;99.90;;;16.15;100.00;100481.75;6160089;23;20013;-84
2021/08/20 03:51:12;;;;;;;16.10;11.73;;;14.80;99.90;;;16.11;100.00;100480.97;6186483;23;20005;-85
2021/08/20 03:53:38;;;;;;;18.17;12.90;;;14.80;99.90;;;16.09;100.00;100491.81;6160290;23;20040;-83
2021/08/20 03:56:04;;;;;;;21.27;12.68;;;14.80;99.90;;;16.11;100.00;100480.16;6160368;23;20016;-86
2021/08/20 03:58:30;;;;;;;22.17;13.70;;;14.80;99.90;;;16.16;100.00;100494.66;6184482;23;20005;-84
2021/08/20 04:00:56;;;;;;;18.08;13.45;;;14.80;99.90;;;16.17;100.00;100501.91;6186714;23;20040;-82
2021/08/20 04:03:25;;;;;;;18.50;13.88;;;14.80;99.90;;;16.20;100.00;100491.84;6160565;23;20339;-87
2021/08/20 04:05:51;;;;;;;19.75;14.15;;;14.90;99.90;;;16.16;100.00;100489.00;6160216;23;20013;-87
2021/08/20 04:08:18;;;;;;;21.45;15.73;;;14.90;99.90;;;16.13;100.00;100498.28;6186618;23;20445;-88
2021/08/20 04:10:45;;;;;;;19.40;14.30;;;14.80;99.90;;;16.12;100.00;100496.66;6160742;23;20423;-87
2021/08/20 04:13:13;;;;;;;18.02;14.60;;;14.80;99.90;;;16.09;100.00;100497.44;6160114;23;20112;-88
2021/08/20 04:15:40;;;;;;;21.23;15.50;;;14.80;99.90;;;16.01;100.00;100504.28;6160427;23;20020;-87
2021/08/20 04:18:07;;;;;;;24.75;16.08;;;14.80;99.90;;;16.02;100.00;100499.47;6160497;23;20345;-88
2021/08/20 04:20:33;;;;;;;24.02;16.73;;;14.80;99.90;;;15.97;100.00;100499.84;6160262;23;20009;-85
2021/08/20 04:23:00;;;;;;;23.15;16.48;;;14.80;99.90;;;15.99;100.00;100501.03;6162032;23;20015;-87
2021/08/20 04:25:28;;;;;;;21.10;15.82;;;14.70;99.90;;;16.01;100.00;100503.47;6162061;23;20017;-89
2021/08/20 04:27:55;;;;;;;24.58;17.05;;;14.70;99.90;;;15.94;100.00;100500.63;6160887;23;20009;-90
2021/08/20 04:30:23;;;;;;;26.92;18.58;;;14.70;99.90;;;15.91;100.00;100502.25;6188092;23;20105;-86
2021/08/20 04:32:49;;;;;;;24.95;16.88;;;14.70;99.90;;;15.93;100.00;100513.91;6161199;23;20064;-86
2021/08/20 04:35:16;;;;;;;26.30;17.90;;;14.70;99.90;;;15.92;100.00;100508.69;6162630;23;20013;-89
2021/08/20 04:37:42;;;;;;;24.98;18.52;;;14.70;99.90;;;15.83;100.00;100511.84;6161158;23;20009;-89
2021/08/20 04:40:09;;;;;;;27.15;18.63;;;14.60;99.90;;;15.83;100.00;100511.84;6160696;23;20335;-86
2021/08/20 04:42:37;;;;;;;23.85;17.38;;;14.60;99.90;;;15.82;100.00;100518.72;6160185;23;20135;-87
2021/08/20 04:45:05;;;;;;;26.33;17.88;;;14.60;99.90;;;15.79;100.00;100513.88;6160223;23;20423;-86
2021/08/20 04:47:32;;;;;;;30.98;18.02;;;14.60;99.90;;;15.76;100.00;100518.25;6159793;23;20091;-86
2021/08/20 04:49:59;;;;;;;26.17;17.42;;;14.50;99.90;;;15.73;100.00;100521.88;6188667;23;20064;-86
2021/08/20 04:52:25;;;;;;;28.08;19.83;;;14.50;99.90;;;15.66;100.00;100518.25;6159871;23;20107;-87
2021/08/20 04:54:51;;;;;;;29.27;20.77;;;14.50;99.90;;;15.64;100.00;100515.81;6159940;23;20067;-86
2021/08/20 04:57:17;;;;;;;28.85;19.80;;;14.50;99.90;;;15.72;100.00;100520.28;6160467;23;20466;-88
2021/08/20 04:59:43;;;;;;;29.08;20.63;;;14.50;99.90;;;15.74;100.00;100517.88;6160220;23;20148;-89
2021/08/20 05:02:09;;;;;;;30.88;20.73;;;14.50;99.90;;;15.69;100.00;100520.25;6159845;23;20041;-88
2021/08/20 05:04:37;;;;;;;29.33;21.58;;;14.50;99.90;;;15.77;100.00;100525.50;6161428;23;20092;-86
2021/08/20 05:07:04;;;;;;;36.97;22.02;;;14.50;99.90;;;15.74;100.00;100539.56;6187538;23;20011;-88
2021/08/20 05:09:33;;;;;;;29.88;20.75;;;14.50;99.90;;;15.72;100.00;100537.19;6186024;23;20001;-85
2021/08/20 05:12:01;;;;;;;36.10;21.63;;;14.50;99.90;;;15.81;100.00;100536.81;6186635;23;20078;-86
2021/08/20 05:14:27;;;;;;;33.85;21.92;;;14.50;99.90;;;15.78;100.00;100532.78;6159416;23;20104;-87
2021/08/20 05:16:53;;;;;;;32.92;21.90;;;14.60;99.90;;;15.86;100.00;100535.63;6160799;23;20050;-90
2021/08/20 05:19:20;;;;;;;35.33;22.27;;;14.60;99.90;;;15.98;100.00;100538.88;6160441;23;20016;-86
2021/08/20 05:21:46;;;;;;;32.35;22.77;;;14.70;99.90;;;15.98;100.00;100538.06;6159575;23;20013;-89
2021/08/20 05:24:12;;;;;;;32.10;21.85;;;14.70;99.90;;;16.09;100.00;100539.72;6185643;23;20055;-88
2021/08/20 05:26:38;;;;;;;35.22;22.75;;;14.80;99.90;;;16.09;100.00;100536.06;6160072;23;20028;-85
2021/08/20 05:29:04;;;;;;;37.30;21.85;;;14.80;99.90;;;16.23;100.00;100533.31;6159970;23;20076;-86
2021/08/20 05:31:31;;;;;;;33.60;22.55;;;14.90;99.90;;;16.32;100.00;100533.72;6160539;23;20340;-86
2021/08/20 05:35:48;;;;;;;;;;;;;;;;;;;;;
2021/08/20 05:38:15;;;;;;;29.42;20.52;;;15.00;99.90;;;16.43;100.00;100530.94;6151895;23;20087;-86
2021/08/20 05:40:41;;;;;;;26.80;18.75;;;15.20;99.90;;;16.60;99.85;100535.81;6159708;23;20008;-83
2021/08/20 05:43:07;;;;;;;26.40;18.20;;;15.30;99.90;;;16.85;100.00;100547.91;6164243;23;20016;-85
2021/08/20 05:45:37;;;;;;;26.25;18.33;;;15.40;99.90;;;17.09;98.99;100552.72;6199681;23;20008;-84
2021/08/20 05:48:06;;;;;;;22.17;16.58;;;15.60;99.90;;;17.39;96.75;100555.91;6161751;23;20052;-84
2021/08/20 05:50:33;;;;;;;29.67;17.05;;;15.80;99.90;;;17.64;95.33;100550.22;6159275;23;20378;-87
2021/08/20 05:52:58;;;;;;;23.77;15.13;;;16.00;99.90;;;17.69;93.95;100555.44;6160049;23;20005;-90
2021/08/20 05:55:25;;;;;;;23.50;16.00;;;16.20;99.90;;;17.65;92.27;100559.50;6165971;23;20320;-87
2021/08/20 05:57:52;;;;;;;22.58;15.10;;;16.10;99.90;;;17.34;92.77;100564.78;6196033;23;20375;-84
2021/08/20 06:00:19;;;;;;;19.77;15.18;;;16.10;99.90;;;17.35;92.99;100557.94;6161077;23;20025;-85
2021/08/20 06:02:45;;;;;;;21.58;15.27;;;16.00;99.90;;;17.28;93.24;100555.13;6161172;23;20060;-86
2021/08/20 06:05:11;;;;;;;18.73;14.68;;;16.00;99.90;;;17.38;93.62;100559.13;6188248;23;20005;-82
2021/08/20 06:07:37;;;;;;;24.27;15.63;;;15.90;99.90;;;17.39;93.52;100561.56;6161613;23;20036;-85
2021/08/20 06:10:08;;;;;;;21.38;15.52;;;16.00;99.90;;;17.61;92.38;100562.34;6189210;23;20008;-85
2021/08/20 06:12:35;;;;;;;21.33;13.88;;;16.20;99.90;;;17.97;91.45;100560.19;6161982;23;20009;-84
2021/08/20 06:15:02;;;;;;;21.70;14.77;;;16.40;99.90;;;17.97;90.66;100560.19;6160659;23;20013;-89
2021/08/20 06:17:29;;;;;;;19.95;13.88;;;16.50;99.90;;;18.11;90.16;100570.63;6160928;23;20067;-86
2021/08/20 06:19:56;;;;;;;23.20;13.45;;;16.60;99.90;;;18.33;89.67;100567.25;6185518;23;20011;-88
2021/08/20 06:22:22;;;;;;;23.15;14.27;;;16.70;99.90;;;18.49;88.59;100551.84;6163875;23;20039;-88
2021/08/20 06:24:48;;;;;;;21.13;14.50;;;16.90;99.90;;;18.41;88.97;100568.84;6202758;23;20009;-89
2021/08/20 06:27:15;;;;;;;26.00;15.05;;;17.10;99.90;;;18.48;88.68;100568.00;6208159;23;20029;-85
2021/08/20 06:29:41;;;;;;;20.02;13.35;;;17.10;99.90;;;18.92;87.36;100562.44;6164119;23;20016;-87
2021/08/20 06:32:08;;;;;;;21.85;14.88;;;17.30;99.90;;;19.13;86.68;100567.13;6166745;23;20012;-86
2021/08/20 06:34:34;;;;;;;23.35;13.80;;;17.50;99.90;;;19.20;85.74;100569.88;6167675;23;20282;-88
2021/08/20 06:37:00;;;;;;;23.58;14.70;;;17.60;99.90;;;19.20;85.44;100575.53;6166208;23;20532;-88
2021/08/20 06:39:27;;;;;;;24.33;15.38;;;17.70;99.90;;;18.99;86.33;100574.91;6189301;23;20005;-86
2021/08/20 06:41:54;;;;;;;27.88;14.52;;;17.60;99.90;;;18.56;88.88;100577.28;6162236;23;20009;-89
2021/08/20 06:44:20;;;;;;;25.23;15.73;;;17.30;99.90;;;18.60;89.11;100578.03;6162969;23;20009;-86
2021/08/20 06:46:46;;;;;;;26.45;16.63;;;17.20;99.90;;;18.57;89.24;100587.34;6162234;23;20028;-88
2021/08/20 06:49:14;;;;;;;40.72;18.35;;;17.20;99.90;;;18.62;89.22;100572.78;6162472;23;20063;-85
2021/08/20 06:51:40;;;;;;;32.00;17.77;;;17.20;99.90;;;18.48;90.10;100578.50;6188257;23;20092;-89
2021/08/20 06:54:06;;;;;;;26.95;15.23;;;17.30;99.90;;;18.98;89.00;100587.44;6187244;23;20012;-87
2021/08/20 06:56:35;;;;;;;33.17;18.90;;;17.40;99.90;;;19.14;87.76;100585.69;6162003;23;20016;-87
2021/08/20 06:59:01;;;;;;;32.58;18.73;;;17.60;99.90;;;19.25;86.75;100591.28;6162814;23;20068;-88
2021/08/20 07:01:32;;;;;;;29.40;18.05;;;17.70;99.90;;;19.47;86.66;100598.38;6163669;23;20092;-86
2021/08/20 07:03:59;;;;;;;31.90;18.48;;;17.80;99.90;;;19.38;86.37;100596.00;6163857;23;20513;-86
2021/08/20 07:06:27;;;;;;;28.83;17.55;;;17.90;99.90;;;19.24;86.52;100586.81;6187389;23;20013;-86
2021/08/20 07:08:55;;;;;;;25.80;16.85;;;17.80;99.90;;;19.42;86.00;100587.50;6163486;23;20100;-86
2021/08/20 07:11:24;;;;;;;30.15;17.63;;;17.90;99.90;;;19.57;85.81;100588.97;6190245;23;20338;-85
2021/08/20 07:13:51;;;;;;;30.50;16.17;;;18.00;99.90;;;19.67;85.85;100590.88;6191406;23;20040;-85
2021/08/20 07:16:17;;;;;;;27.80;17.48;;;18.10;99.90;;;19.63;84.93;100583.63;6190340;23;20005;-87
2021/08/20 07:18:44;;;;;;;29.92;18.88;;;18.10;99.90;;;19.55;85.37;100582.91;6163390;23;20028;-84
2021/08/20 07:21:10;;;;;;;31.80;18.02;;;18.10;99.90;;;19.79;84.84;100590.31;6163583;23;20478;-84
2021/08/20 07:23:36;;;;;;;29.77;18.02;;;18.20;99.90;;;19.78;85.26;100577.38;6163704;23;20009;-86
2021/08/20 07:26:06;;;;;;;32.20;18.58;;;18.30;99.90;;;19.86;85.50;100586.59;6163346;23;20013;-87
2021/08/20 07:28:34;;;;;;;33.42;18.35;;;18.30;99.90;;;19.73;84.95;100583.53;6164463;23;20009;-85
2021/08/20 07:31:01;;;;;;;31.10;17.23;;;18.30;99.90;;;19.76;85.43;100588.34;6163667;23;20009;-84
2021/08/20 07:33:27;;;;;;;31.98;19.85;;;18.20;99.90;;;19.50;86.98;100585.38;6162036;23;20047;-87
2021/08/20 07:35:53;;;;;;;33.22;19.67;;;18.20;99.90;;;19.37;87.14;100593.56;6189220;23;20327;-87
2021/08/20 07:38:19;;;;;;;30.02;18.20;;;18.10;99.90;;;19.31;87.06;100592.41;6190723;23;20019;-86
2021/08/20 07:40:45;;;;;;;28.88;17.83;;;18.00;99.90;;;19.32;87.05;100591.22;6164832;23;20065;-86
2021/08/20 07:43:11;;;;;;;29.85;18.80;;;17.90;99.90;;;19.31;87.75;100587.56;6164400;23;20005;-86
2021/08/20 07:45:39;;;;;;;30.15;18.30;;;17.90;99.90;;;19.37;87.66;100594.38;6164851;23;20041;-86
2021/08/20 07:48:06;;;;;;;30.38;18.55;;;17.90;99.90;;;18.94;88.42;100593.94;6164301;23;20024;-86
2021/08/20 07:50:32;;;;;;;30.40;19.63;;;17.80;99.90;;;19.05;88.25;100596.69;6163648;23;20083;-85
2021/08/20 07:52:58;;;;;;;30.17;19.20;;;17.80;99.90;;;19.05;88.13;100608.03;6165843;23;20009;-84
2021/08/20 07:55:24;;;;;;;25.70;16.95;;;17.70;99.90;;;19.19;88.23;100609.94;6162969;23;20349;-85
2021/08/20 07:57:55;;;;;;;28.67;18.52;;;17.60;99.90;;;19.09;89.53;100608.00;6163263;23;20036;-84
2021/08/20 08:00:26;;;;;;;26.08;17.08;;;17.60;99.90;;;19.23;89.09;100608.66;6190164;23;20418;-86
2021/08/20 08:02:53;;;;;;;32.78;19.52;;;17.70;99.90;;;19.22;88.86;100618.41;6163383;23;20434;-87
2021/08/20 08:05:21;;;;;;;31.00;18.70;;;17.80;99.90;;;19.17;88.20;100612.38;6161330;23;20017;-86
2021/08/20 08:07:48;;;;;;;32.85;20.33;;;17.80;99.90;;;19.31;88.63;100629.25;6186814;23;20430;-86
2021/08/20 08:10:16;;;;;;;32.45;20.08;;;17.80;99.90;;;19.33;88.27;100627.59;6185900;23;20017;-87
2021/08/20 08:12:43;;;;;;;31.40;18.98;;;17.80;99.90;;;19.40;88.04;100627.56;6187554;23;20491;-85
2021/08/20 08:15:14;;;;;;;39.15;20.83;;;17.90;99.90;;;19.53;87.68;100635.53;6161525;23;20001;-87
2021/08/20 08:17:41;;;;;;;33.65;19.35;;;18.00;99.90;;;19.68;87.04;100634.19;6161864;23;20013;-87
2021/08/20 08:20:12;;;;;;;29.48;19.27;;;18.10;99.90;;;19.74;87.77;100638.16;6163064;23;20032;-89
2021/08/20 08:22:38;;;;;;;40.70;22.95;;;18.20;99.90;;;19.75;87.14;100640.56;6162182;23;20012;-87
2021/08/20 08:25:05;;;;;;;40.22;22.65;;;18.30;99.90;;;19.89;86.54;100639.63;6162160;23;20042;-88
2021/08/20 08:27:43;;;;;;;39.65;24.13;;;18.30;99.90;;;19.91;86.45;100631.47;6188570;23;20009;-86
2021/08/20 08:30:09;;;;;;;33.15;21.23;;;18.40;99.90;;;20.39;85.15;100637.00;6161789;23;20343;-88
2021/08/20 08:32:35;;;;;;;34.10;21.02;;;18.70;99.90;;;20.82;83.58;100635.19;6161636;23;20005;-87
2021/08/20 08:35:01;;;;;;;31.60;21.00;;;19.10;99.90;;;21.00;82.79;100640.56;6186872;23;20001;-88
2021/08/20 08:37:27;;;;;;;32.28;20.60;;;19.30;99.90;;;21.42;81.44;100630.56;6162459;23;20021;-88
2021/08/20 08:39:53;;;;;;;33.50;21.13;;;19.60;99.90;;;21.69;78.89;100641.88;6187383;23;20008;-88
2021/08/20 08:42:19;;;;;;;30.58;20.38;;;20.00;99.90;;;22.10;77.38;100638.66;6188731;23;20005;-87
2021/08/20 08:44:44;;;;;;;31.35;20.25;;;20.40;99.90;;;22.68;73.13;100629.31;6187667;23;20012;-86
2021/08/20 08:47:16;;;;;;;30.98;21.15;;;20.80;99.90;;;22.56;73.59;100633.63;6189952;23;20005;-89
2021/08/20 08:49:48;;;;;;;31.92;22.88;;;20.90;99.90;;;22.18;75.08;100631.63;6196904;23;20001;-87
2021/08/20 08:52:14;;;;;;;31.20;21.88;;;20.80;99.90;;;22.77;72.33;100628.69;6200189;23;20052;-83
2021/08/20 08:54:40;;;;;;;32.08;20.67;;;21.10;99.90;;;22.91;71.37;100640.56;6188507;23;20001;-87
2021/08/20 08:57:06;;;;;;;27.58;20.02;;;21.10;99.90;;;22.85;73.59;100635.84;6187890;23;20028;-87
2021/08/20 08:59:32;;;;;;;25.95;18.83;;;21.20;99.90;;;22.70;72.39;100626.03;6162734;23;20347;-87
2021/08/20 09:01:58;;;;;;;27.10;18.05;;;21.00;99.90;;;22.38;73.25;100630.34;6188549;23;20073;-90
2021/08/20 09:04:24;;;;;;;28.10;17.98;;;20.90;99.90;;;22.20;74.64;100626.28;6161784;23;20005;-89
2021/08/20 09:06:57;;;;;;;22.88;16.38;;;20.70;99.90;;;22.05;75.69;100625.78;6161602;23;20020;-91
2021/08/20 09:09:25;;;;;;;23.27;16.25;;;20.60;99.90;;;22.26;74.35;100625.31;6188427;23;20013;-87
2021/08/20 09:12:01;;;;;;;22.85;14.75;;;20.70;99.90;;;22.49;73.48;100630.94;6162083;23;20016;-88
2021/08/20 09:14:35;;;;;;;19.48;14.18;;;20.80;99.90;;;23.10;71.39;100636.06;6161407;23;20009;-85
2021/08/20 09:17:04;;;;;;;18.10;14.20;;;21.30;99.90;;;23.25;69.33;100636.50;6161985;23;20068;-88
2021/08/20 09:19:31;;;;;;;15.25;11.82;;;21.50;99.90;;;23.27;68.83;100634.00;6187200;23;20059;-89
2021/08/20 09:22:09;;;;;;;18.42;13.23;;;21.50;99.90;;;23.15;69.55;100637.59;6188345;23;20434;-83
2021/08/20 09:24:43;;;;;;;17.95;13.23;;;21.40;99.90;;;22.55;72.19;100634.06;6163314;23;20005;-87
2021/08/20 09:27:15;;;;;;;17.02;12.75;;;21.20;99.90;;;22.43;72.29;100634.72;6162026;23;20016;-85
2021/08/20 09:30:06;;;;;;;18.05;12.50;;;21.00;99.90;;;23.04;71.22;100644.34;6161378;23;20514;-89
2021/08/20 09:32:44;;;;;;;19.23;12.45;;;21.30;99.90;;;23.22;70.10;100649.59;6161172;23;20066;-88
2021/08/20 09:35:11;;;;;;;17.73;12.25;;;21.50;99.90;;;23.43;69.29;100654.81;6161464;23;20056;-87
2021/08/20 09:37:39;;;;;;;16.80;12.98;;;21.70;99.90;;;23.38;68.32;100645.94;6187928;23;20012;-88
2021/08/20 09:40:10;;;;;;;18.20;13.10;;;21.90;99.90;;;23.67;67.65;100646.81;6161925;23;20012;-83
2021/08/20 09:42:36;;;;;;;14.57;10.82;;;22.10;99.90;;;23.83;67.33;100661.06;6161486;23;20005;-85
2021/08/20 09:45:23;;;;;;;14.70;10.90;;;22.10;99.90;;;23.87;65.57;100650.38;6160688;23;20092;-87
2021/08/20 09:47:55;;;;;;;17.60;11.80;;;22.10;99.90;;;23.88;65.84;100642.63;6161595;23;20013;-85
2021/08/20 09:50:40;;;;;;;14.05;9.98;;;22.10;99.90;;;23.69;66.67;100644.34;6185896;23;20020;-83
2021/08/20 09:53:15;;;;;;;14.18;10.20;;;21.90;99.90;;;23.41;66.83;100645.06;6159648;23;20012;-86
2021/08/20 09:55:43;;;;;;;15.75;11.75;;;21.70;99.90;;;22.46;70.55;100640.34;6159608;23;20005;-88
2021/08/20 09:58:13;;;;;;;14.57;10.38;;;21.30;99.90;;;22.31;71.41;100636.22;6159735;23;20017;-88
2021/08/20 10:00:42;;;;;;;14.27;9.23;;;21.00;99.90;;;22.21;73.11;100634.38;6186287;23;20005;-87
2021/08/20 10:03:15;;;;;;;13.82;10.20;;;20.70;99.90;;;21.95;74.32;100641.81;6186036;23;20007;-84